Latest Weather Observations for Mount Keith

IDW60801

Issued at 9:43 pm WST Sunday 17 February 2019 (issued every 10 minutes, with the page automatically refreshed every 10 minutes)

About weather observations | Map of weather stations | Latest weather observations for WA | Other Formats
Station Details ID: 512019 Name: MOUNT KEITH Lat: -27.29 Lon: 120.55 Height: 542.33 m
Data from the previous 72 hours. | See also: Recent months for locations in Western Australia
Date/Time
WST
Temp
°C
App
Temp
°C
Dew
Point
°C
Rel
Hum
%
Delta-T
°C
Wind Press
QNH
hPa
Press
MSL
hPa
Rain since
9am
mm
Dir  Spd
km/h
Gust
km/h
Spd
kts
Gust
kts
17/09:30pm 30.7 25.4 8.4 25 12.6 SE 26 37 14 20 1012.0 1007.8 0.0
17/09:00pm 31.3 25.6 8.3 24 13.0 SE 28 35 15 19 1011.7 1007.4 0.0
17/08:30pm 32.1 26.0 8.4 23 13.5 SE 30 39 16 21 1011.4 1007.1 0.0
17/08:00pm 33.0 27.2 7.8 21 14.3 SE 28 37 15 20 1010.9 1006.7 0.0
17/07:30pm 34.0 29.4 5.5 17 15.7 SSE 19 26 10 14 1010.4 1006.2 0.0
17/07:00pm 35.0 30.4 5.4 16 16.3 SE 19 24 10 13 1009.9 1005.6 0.0
17/06:30pm 36.0 31.1 4.3 14 17.3 SE 19 22 10 12 1009.6 1005.3 0.0
17/06:00pm 36.7 31.9 4.9 14 17.6 SSE 19 26 10 14 1009.4 1005.1 0.0
17/05:30pm 37.2 32.9 5.3 14 17.7 SSE 17 20 9 11 1009.5 1005.2 0.0
17/05:00pm 37.4 32.8 5.4 14 17.9 SE 19 28 10 15 1009.5 1005.2 0.0
17/04:30pm 37.6 33.0 5.6 14 17.9 SE 19 28 10 15 1009.5 1005.2 0.0
17/04:00pm 38.1 33.7 4.9 13 18.5 SE 17 32 9 17 1009.6 1005.3 0.0
17/03:30pm 38.9 34.7 5.5 13 18.8 SE 17 24 9 13 1009.6 1005.3 0.0
17/03:00pm 38.2 34.8 3.8 12 18.8 SW 11 17 6 9 1009.9 1005.6 0.0
17/02:30pm 37.9 34.0 3.6 12 18.7 ESE 13 28 7 15 1010.3 1006.1 0.0
17/02:00pm 37.6 34.3 4.5 13 18.2 ENE 11 26 6 14 1010.7 1006.5 0.0
17/01:30pm 37.3 34.1 5.3 14 17.8 SE 11 22 6 12 1011.2 1006.9 0.0
17/01:00pm 35.9 32.9 6.2 16 16.7 SSE 11 20 6 11 1011.7 1007.4 0.0
17/12:30pm 35.0 31.9 7.1 18 15.8 E 13 20 7 11 1012.1 1007.9 0.0
17/12:00pm 34.5 30.3 7.5 19 15.3 ESE 19 28 10 15 1012.5 1008.3 0.0
17/11:30am 34.2 30.1 8.0 20 15.0 ESE 19 24 10 13 1013.2 1008.9 0.0
17/11:00am 32.6 28.4 8.1 22 13.9 ESE 20 30 11 16 1013.7 1009.5 0.0
17/10:30am 31.8 27.3 8.7 24 13.2 SE 22 32 12 17 1014.2 1010.0 0.0
17/10:00am 30.5 25.9 8.3 25 12.5 ESE 22 30 12 16 1014.5 1010.3 0.0
17/09:30am 29.7 25.1 8.2 26 12.1 ESE 22 32 12 17 1014.7 1010.5 0.0
17/09:00am 28.4 22.5 7.6 27 11.5 ESE 28 37 15 20 1014.8 1010.6 0.0
17/08:30am 27.8 22.5 8.6 30 10.7 SE 26 33 14 18 1014.8 1010.6 0.0
17/08:00am 26.8 20.8 8.7 32 10.1 SE 30 43 16 23 1014.9 1010.7 0.0
17/07:30am 26.3 20.4 9.2 34 9.6 SE 30 39 16 21 1014.8 1010.6 0.0
17/07:00am 25.9 21.2 10.5 38 8.8 SE 26 35 14 19 1014.6 1010.4 0.0
17/06:30am 25.1 21.6 10.9 41 8.2 SE 20 30 11 16 1014.3 1010.1 0.0
17/06:00am 25.0 21.6 10.5 40 8.3 SSE 19 26 10 14 1014.1 1009.9 0.0
17/05:30am 25.1 21.9 9.8 38 8.6 SSE 17 22 9 12 1013.7 1009.5 0.0
17/05:00am 25.3 21.9 9.2 36 9.0 SSE 17 20 9 11 1013.3 1009.0 0.0
17/04:30am 26.1 23.0 9.0 34 9.6 SSE 15 20 8 11 1013.0 1008.8 0.0
17/04:00am 26.7 23.5 8.6 32 10.1 SE 15 20 8 11 1012.6 1008.4 0.0
17/03:30am 27.0 24.2 8.4 31 10.3 SE 13 17 7 9 1012.4 1008.2 0.0
17/03:00am 27.7 24.7 7.5 28 11.1 SE 13 20 7 11 1012.2 1008.0 0.0
17/02:30am 28.3 24.5 7.5 27 11.5 SE 17 28 9 15 1012.1 1007.9 0.0
17/02:00am 28.3 24.4 5.2 23 12.3 SE 15 20 8 11 1011.9 1007.7 0.0
17/01:30am 28.9 24.2 3.0 19 13.3 S 17 20 9 11 1011.9 1007.7 0.0
17/01:00am 29.2 25.0 1.7 17 13.8 SSW 13 24 7 13 1012.1 1007.9 0.0
17/12:30am 26.9 24.2 2.7 21 12.2 WSW 6 6 3 3 1012.0 1007.8 0.0
17/12:00am 29.2 25.8 1.7 17 13.8 SW 9 11 5 6 1012.5 1008.3 0.0
 
Date/Time
WST
Temp
°C
App
Temp
°C
Dew
Point
°C
Rel
Hum
%
Delta-T
°C
Wind Press
QNH
hPa
Press
MSL
hPa
Rain since
9am
mm
Dir  Spd
km/h
Gust
km/h
Spd
kts
Gust
kts
16/11:30pm 29.3 25.9 1.7 17 13.9 SW 9 11 5 6 1012.9 1008.7 0.0
16/11:00pm 30.7 26.8 1.1 15 14.9 SW 11 11 6 6 1013.2 1008.9 0.0
16/10:30pm 30.6 26.7 1.0 15 14.8 SW 11 13 6 7 1013.4 1009.1 0.0
16/10:00pm 31.7 27.8 1.0 14 15.5 SW 11 13 6 7 1013.5 1009.2 0.0
16/09:30pm 32.5 28.5 0.6 13 16.0 SW 11 15 6 8 1013.6 1009.4 0.0
16/09:00pm 33.1 29.2 1.0 13 16.3 SW 11 13 6 7 1013.7 1009.5 0.0
16/08:30pm 34.9 30.5 0.1 11 17.6 SSW 13 19 7 10 1013.4 1009.1 0.0
16/08:00pm 34.9 30.5 0.1 11 17.6 SW 13 17 7 9 1013.2 1008.9 0.0
16/07:30pm 35.9 31.8 -0.5 10 18.4 SW 11 15 6 8 1012.9 1008.7 0.0
16/07:00pm 37.1 33.3 -1.0 9 19.2 SW 9 13 5 7 1012.5 1008.3 0.0
16/06:30pm 38.4 33.9 0.0 9 19.8 WSW 13 17 7 9 1012.2 1008.0 0.0
16/06:00pm 39.4 32.7 -0.9 8 20.7 W 24 33 13 18 1012.0 1007.8 0.0
16/05:30pm 39.8 33.9 -0.6 8 20.8 WSW 20 33 11 18 1011.9 1007.7 0.0
16/05:00pm 40.1 33.5 -0.4 8 21.0 WSW 24 35 13 19 1011.9 1007.7 0.0
16/04:30pm 39.7 33.4 -0.7 8 20.8 WSW 22 35 12 19 1012.0 1007.8 0.0
16/04:00pm 40.5 34.9 -0.1 8 21.2 W 19 57 10 31 1012.0 1007.8 0.0
16/03:59pm 40.9 35.3 0.2 8 21.4 WSW 19 57 10 31 1009.0 1004.8 0.0
16/03:30pm 41.1 35.1 -1.5 7 21.8 W 20 35 11 19 1012.2 1008.0 0.0
16/03:00pm 40.3 35.0 -0.3 8 21.1 WSW 17 30 9 16 1012.4 1008.2 0.0
16/02:30pm 40.2 34.9 -0.3 8 21.0 W 17 32 9 17 1012.7 1008.5 0.0
16/02:00pm 40.2 34.4 -0.3 8 21.0 W 20 35 11 19 1013.4 1009.1 0.0
16/01:30pm 40.2 34.9 -0.3 8 21.0 WNW 17 26 9 14 1013.7 1009.5 0.0
16/01:00pm 38.3 33.2 -1.7 8 20.1 WNW 15 28 8 15 1014.2 1010.0 0.0
16/12:30pm 38.0 33.1 -0.3 9 19.6 WNW 15 24 8 13 1014.5 1010.3 0.0
16/12:00pm 38.6 33.0 -3.3 7 20.6 W 17 30 9 16 1014.9 1010.7 0.0
16/11:30am 38.3 34.0 1.3 10 19.5 WSW 13 20 7 11 1015.3 1011.1 0.0
16/11:00am 37.0 33.2 1.7 11 18.6 NW 11 15 6 8 1015.8 1011.6 0.0
16/10:30am 35.9 32.7 0.9 11 18.1 NE 7 13 4 7 1016.1 1011.9 0.0
16/10:00am 35.2 32.1 1.5 12 17.5 N 7 15 4 8 1016.4 1012.2 0.0
16/09:30am 33.8 30.9 2.6 14 16.3 ENE 7 15 4 8 1016.6 1012.4 0.0
16/09:00am 32.5 29.4 3.5 16 15.3 SE 9 15 5 8 1016.7 1012.5 0.0
16/08:30am 31.1 27.8 4.8 19 14.1 SSE 11 17 6 9 1016.7 1012.5 0.0
16/08:00am 29.3 25.9 4.0 20 13.2 SSW 11 15 6 8 1016.7 1012.5 0.0
16/07:30am 28.2 24.5 4.5 22 12.4 SSW 13 15 7 8 1016.7 1012.5 0.0
16/07:00am 26.9 23.9 4.0 23 11.8 SW 9 15 5 8 1016.8 1012.6 0.0
16/06:30am 25.4 23.0 4.5 26 10.8 ENE 6 9 3 5 1016.8 1012.6 0.0
16/06:00am 25.2 21.8 3.8 25 10.9 ESE 11 20 6 11 1016.4 1012.2 0.0
16/05:30am 25.4 21.5 3.4 24 11.1 SW 13 15 7 8 1015.8 1011.6 0.0
16/05:00am 26.2 23.1 3.5 23 11.5 SW 9 13 5 7 1015.7 1011.5 0.0
16/04:30am 26.9 23.0 3.4 22 12.0 SW 13 17 7 9 1015.3 1011.1 0.0
16/04:00am 27.4 23.0 2.5 20 12.5 SW 15 19 8 10 1015.2 1010.9 0.0
16/03:30am 27.9 23.0 2.2 19 12.9 SW 17 20 9 11 1015.1 1010.8 0.0
16/03:00am 28.8 23.9 2.1 18 13.5 SW 17 24 9 13 1015.1 1010.8 0.0
16/02:30am 28.9 23.9 1.4 17 13.7 SW 17 24 9 13 1015.1 1010.8 0.0
16/02:00am 29.4 24.3 1.0 16 14.1 SW 17 20 9 11 1015.3 1011.1 0.0
16/01:30am 29.5 24.8 1.1 16 14.1 SSW 15 19 8 10 1015.5 1011.3 0.0
16/01:00am 30.1 25.0 0.6 15 14.6 SSW 17 20 9 11 1015.5 1011.3 0.0
16/12:30am 29.5 25.2 1.1 16 14.1 SSW 13 15 7 8 1015.6 1011.4 0.0
16/12:00am 29.7 26.0 2.1 17 14.0 SSW 11 11 6 6 1015.8 1011.6 0.0
 
Date/Time
WST
Temp
°C
App
Temp
°C
Dew
Point
°C
Rel
Hum
%
Delta-T
°C
Wind Press
QNH
hPa
Press
MSL
hPa
Rain since
9am
mm
Dir  Spd
km/h
Gust
km/h
Spd
kts
Gust
kts
15/11:30pm 30.4 26.6 1.8 16 14.5 SSW 11 15 6 8 1015.8 1011.6 0.0
15/11:00pm 30.5 27.1 1.9 16 14.5 SSW 9 11 5 6 1015.9 1011.7 0.0
15/10:30pm 32.1 27.8 1.3 14 15.6 SSW 13 17 7 9 1015.9 1011.7 0.0
15/10:00pm 31.9 27.6 1.1 14 15.6 SW 13 15 7 8 1016.0 1011.8 0.0
15/09:30pm 33.5 28.7 0.2 12 16.7 SW 15 19 8 10 1016.0 1011.8 0.0
15/09:00pm 34.0 28.9 0.6 12 16.9 SW 17 20 9 11 1015.9 1011.7 0.0
15/08:30pm 34.5 29.8 1.0 12 17.2 SW 15 19 8 10 1015.6 1011.4 0.0
15/08:00pm 35.4 30.6 0.5 11 17.8 SW 15 20 8 11 1015.3 1011.1 0.0
15/07:30pm 36.5 31.5 1.3 11 18.3 SW 17 20 9 11 1014.8 1010.6 0.0
15/07:00pm 37.3 32.9 0.6 10 19.0 WSW 13 17 7 9 1014.4 1010.2 0.0
15/06:30pm 38.5 32.7 0.0 9 19.9 WSW 20 28 11 15 1013.9 1009.7 0.0
15/06:00pm 39.5 34.4 0.8 9 20.4 WSW 17 24 9 13 1013.5 1009.2 0.0
15/05:30pm 39.6 33.6 0.9 9 20.4 SW 22 32 12 17 1013.5 1009.2 0.0
15/05:00pm 40.4 34.5 1.4 9 20.8 SW 22 37 12 20 1013.2 1008.9 0.0
15/04:30pm 39.9 34.7 2.5 10 20.2 W 19 28 10 15 1013.5 1009.2 0.0
15/04:00pm 39.9 35.5 2.5 10 20.2 WSW 15 22 8 12 1013.4 1009.1 0.0
15/03:30pm 40.6 34.6 3.1 10 20.5 WSW 24 32 13 17 1013.5 1009.2 0.0
15/03:21pm 40.5 33.7 3.0 10 20.5 WSW 28 46 15 25 1013.6 1009.4 0.0
15/03:00pm 40.1 35.7 2.7 10 20.3 W 15 33 8 18 1013.7 1009.5 0.0
15/02:30pm 38.9 35.0 5.5 13 18.8 S 15 26 8 14 1013.9 1009.7 0.0
15/02:00pm 39.6 35.2 4.9 12 19.4 W 17 39 9 21 1014.2 1010.0 0.0
15/01:30pm 39.7 34.6 6.1 13 19.1 WNW 22 32 12 17 1014.6 1010.4 0.0
15/01:00pm 38.6 33.6 6.3 14 18.4 W 22 35 12 19 1014.9 1010.7 0.0
15/12:30pm 38.7 35.1 8.4 16 17.8 NNW 17 28 9 15 1015.3 1011.1 0.0
15/12:00pm 38.2 35.9 10.5 19 16.7 N 13 20 7 11 1015.7 1011.5 0.0
15/11:30am 36.6 33.8 11.4 22 15.3 NNW 17 30 9 16 1016.2 1012.0 0.0
15/11:00am 35.8 33.2 12.1 24 14.5 N 17 26 9 14 1016.7 1012.5 0.0
15/10:30am 35.4 32.9 12.4 25 14.1 N 17 26 9 14 1017.2 1013.0 0.0
15/10:00am 34.4 32.4 12.7 27 13.3 NNW 15 24 8 13 1017.4 1013.2 0.0
15/09:30am 33.6 30.8 12.6 28 12.8 NNW 19 26 10 14 1017.4 1013.2 0.0
15/09:00am 33.0 30.0 12.6 29 12.4 N 20 30 11 16 1017.3 1013.1 0.0
15/08:30am 31.8 28.4 12.6 31 11.7 N 22 28 12 15 1017.4 1013.2 0.0
15/08:00am 30.9 27.2 12.8 33 11.0 NNE 24 32 13 17 1017.2 1013.0 0.0
15/07:30am 28.6 26.2 12.5 37 9.6 NE 17 28 9 15 1017.1 1012.9 0.0
15/07:00am 27.8 25.3 12.2 38 9.3 NNE 17 20 9 11 1016.9 1012.8 0.0
15/06:30am 27.7 25.6 12.5 39 9.1 NNE 15 20 8 11 1016.7 1012.5 0.0
15/06:00am 25.9 24.6 13.7 47 7.4 NNE 13 17 7 9 1016.2 1012.0 0.0
15/05:30am 25.4 24.3 14.2 50 6.8 NE 13 15 7 8 1015.7 1011.5 0.0
15/05:00am 24.7 23.8 13.6 50 6.7 ENE 11 17 6 9 1015.3 1011.1 0.0
15/04:30am 24.3 24.0 12.6 48 6.9 ESE 6 11 3 6 1014.9 1010.7 0.0
15/04:00am 25.2 24.9 12.8 46 7.4 SE 6 9 3 5 1014.7 1010.5 0.0
15/03:30am 25.7 25.5 12.9 45 7.6 ESE 6 9 3 5 1014.5 1010.3 0.0
15/03:00am 26.7 25.8 12.7 42 8.3 ESE 9 15 5 8 1014.4 1010.2 0.0
15/02:30am 27.6 27.7 12.8 40 8.9 N 4 7 2 4 1014.1 1009.9 0.0
15/02:00am 27.5 27.6 12.7 40 8.8 WNW 4 7 2 4 1014.1 1009.9 0.0
15/01:30am 28.8 26.4 12.7 37 9.7 NNW 17 22 9 12 1014.2 1010.0 0.0
15/01:00am 29.1 26.3 12.5 36 10.0 N 19 24 10 13 1014.2 1010.0 0.0
15/12:30am 29.5 26.3 12.0 34 10.4 N 20 30 11 16 1014.1 1009.9 0.0
15/12:00am 29.8 26.6 11.3 32 10.9 N 19 32 10 17 1014.2 1010.0 0.0
 
Date/Time
WST
Temp
°C
App
Temp
°C
Dew
Point
°C
Rel
Hum
%
Delta-T
°C
Wind Press
QNH
hPa
Press
MSL
hPa
Rain since
9am
mm
Dir  Spd
km/h
Gust
km/h
Spd
kts
Gust
kts
14/11:30pm 30.3 26.5 11.3 31 11.2 N 22 35 12 19 1014.3 1010.1 0.0
14/11:00pm 30.2 27.5 11.7 32 11.0 N 17 24 9 13 1014.5 1010.3 0.0
14/10:30pm 30.8 27.4 11.2 30 11.6 N 20 26 11 14 1014.6 1010.4 0.0
14/10:00pm 30.9 28.2 11.8 31 11.4 N 17 24 9 13 1014.9 1010.7 0.0

Other Formats:

Comma delimited format used in spreadsheet applications
http://www.bom.gov.au/fwo/IDW60801/IDW60801.99434.axf

JavaScript Object Notation format (JSON) in row-major order
http://www.bom.gov.au/fwo/IDW60801/IDW60801.99434.json